• Join FlightAware (Why Join?)
  • Login
  • US Flag 
06:18PM EDT


 

Airport Tracker/Info


-or-


 

Live Flight TrackerFlight Track Log ✈ RPA3887 ✈ 07-Jul-2013 ✈ KDEN - KICT

Flight Track Log - Related Links

Times and Time Zones

All times are in EDT time to prevent confusion due to time zone crossing. See the RPA3887 flight status page for this flight to view local times or setup timezone preferences in your user account.

Time Position Orientation Groundspeed Altitude Reporting Facility
EDT Latitude Longitude Course Direction KTS MPH feet Rate Location/Type
12:06PM 39.8833 -104.6167 123° Southeast 184 212 5,900  Level Denver TRACON
12:07PM 39.8500 -104.5500 123° Southeast 218 251 7,600 1,620 Climbing Denver TRACON
12:08PM 39.8375 -104.4914 106° East 221 254 8,700 1,680 Climbing Denver Center
12:09PM 39.8075 -104.4108 116° Southeast 229 264 10,600 1,560 Climbing Denver Center
12:10PM 39.7947 -104.3281 101° East 238 274 12,000 1,020 Climbing Denver Center
12:11PM 39.7883 -104.2375 95° East 252 290 13,000 420 Climbing Denver Center
12:12PM 39.7758 -104.0958 97° East 317 365 13,000  Level Denver Center
12:13PM 39.7633 -103.9772 98° East 332 382 13,000  Level Denver Center
12:14PM 39.7517 -103.8522 97° East 348 400 13,000  Level Denver Center
12:15PM 39.7383 -103.7150 97° East 345 397 13,100  Climbing Denver Center
12:16PM 39.7300 -103.5881 95° East 350 403 13,100  Level Denver Center
12:17PM 39.7183 -103.4633 97° East 350 403 13,100  Level Denver Center
12:18PM 39.7064 -103.3175 96° East 344 396 13,100 480 Level Denver Center
12:19PM 39.6964 -103.1992 96° East 332 382 14,200 1,200 Climbing Denver Center
12:20PM 39.6689 -103.0711 106° East 307 353 15,700 1,140 Climbing Denver Center
12:21PM 39.6481 -102.9664 104° East 303 349 16,600 600 Climbing Denver Center
12:22PM 39.6278 -102.8597 104° East 305 351 17,000 240 Climbing Denver Center
12:23PM 39.6050 -102.7442 104° East 326 375 17,200 660 Climbing Denver Center
12:25PM 39.5811 -102.6306 105° East 326 375 18,400 1,080 Climbing Denver Center
12:26PM 39.5583 -102.5236 105° East 312 359 19,500 1,080 Climbing Denver Center
12:27PM 39.5344 -102.3992 104° East 298 343 20,700 960 Climbing Denver Center
12:28PM 39.5150 -102.3025 105° East 294 338 21,600 780 Climbing Denver Center
12:29PM 39.4911 -102.1875 105° East 296 341 22,400 720 Climbing Denver Center
12:30PM 39.4703 -102.0886 105° East 298 343 23,200 720 Climbing Denver Center
12:31PM 39.4494 -101.9914 105° East 296 341 23,900 720 Climbing Denver Center
12:32PM 39.4275 -101.8797 104° East 290 334 24,700 480 Climbing Denver Center
12:33PM 39.4064 -101.7825 106° East 294 338 25,000 120 Climbing Denver Center
12:34PM 39.3786 -101.6633 107° East 311 358 25,000  Level Denver Center
12:35PM 39.3383 -101.5622 117° Southeast 328 377 25,000  Level Denver Center
12:36PM 39.2919 -101.4408 116° Southeast 338 389 25,000  Level Denver Center
12:37PM 39.2519 -101.3325 115° Southeast 348 400 25,000  Level Denver Center
12:38PM 39.2047 -101.2061 116° Southeast 351 404 25,000  Level Denver Center
12:39PM 39.1631 -101.0975 116° Southeast 353 406 25,000  Level Denver Center
12:40PM 39.1142 -100.9697 116° Southeast 356 410 25,000  Level Denver Center
12:41PM 39.0736 -100.8614 116° Southeast 354 407 25,000  Level Denver Center
12:42PM 39.0253 -100.7364 116° Southeast 351 404 25,000  Level Denver Center
12:43PM 38.9856 -100.6342 117° Southeast 348 400 25,000  Level Denver Center
12:44PM 38.9381 -100.5103 116° Southeast 347 399 25,000  Level Denver Center
12:45PM 38.8972 -100.4075 117° Southeast 341 392 25,000  Level Denver Center
12:46PM 38.8489 -100.2828 116° Southeast 348 400 25,000  Level Denver Center
12:47PM 38.8072 -100.1772 117° Southeast 346 398 25,000  Level Denver Center
12:48PM 38.7583 -100.0536 117° Southeast 348 400 25,000  Level Denver Center
12:49PM 38.7092 -99.9294 117° Southeast 346 398 25,000  Level Kansas City Center
12:50PM 38.6675 -99.8231 117° Southeast 348 400 25,000  Level Kansas City Center
12:52PM 38.6183 -99.7008 117° Southeast 346 398 25,000  Level Kansas City Center
12:53PM 38.5758 -99.5950 117° Southeast 348 400 25,000 -180 Level Kansas City Center
12:54PM 38.5339 -99.4925 118° Southeast 347 399 24,700 -480 Descending Kansas City Center
12:55PM 38.4797 -99.3550 117° Southeast 358 412 24,100 -540 Descending Kansas City Center
12:56PM 38.4325 -99.2408 118° Southeast 364 419 23,700 -480 Descending Kansas City Center
12:57PM 38.3861 -99.1231 117° Southeast 368 423 23,200 -420 Descending Kansas City Center
12:58PM 38.3389 -99.0075 117° Southeast 369 425 22,900 -780 Descending Kansas City Center
12:59PM 38.2900 -98.8892 118° Southeast 373 429 21,700 -960 Descending Kansas City Center
01:00PM 38.2406 -98.7681 117° Southeast 384 442 21,000 -360 Descending Kansas City Center
01:01PM 38.1842 -98.6286 117° Southeast 370 426 21,000 -300 Level Kansas City Center
01:02PM 38.1364 -98.5147 118° Southeast 366 421 20,500 -1,020 Descending Kansas City Center
01:03PM 38.0858 -98.3925 118° Southeast 386 444 18,900 -1,680 Descending Kansas City Center
01:04PM 38.0331 -98.2722 119° Southeast 391 450 17,100 -1,800 Descending Kansas City Center
01:05PM 37.9844 -98.1561 118° Southeast 377 434 15,300 -1,920 Descending Kansas City Center
01:06PM 37.9467 -98.0647 118° Southeast 358 412 13,800 -1,380 Descending Kansas City Center
01:07PM 37.9008 -97.9547 118° Southeast 350 403 13,000 -1,200 Descending Kansas City Center
01:08PM 37.8519 -97.8586 123° Southeast 317 365 11,400 -1,740 Descending Kansas City Center
01:09PM 37.8100 -97.7697 121° Southeast 293 337 9,500 -1,800 Descending Kansas City Center
01:10PM 37.7942 -97.6689 101° East 285 328 7,800 -1,500 Descending Kansas City Center
01:11PM 37.7808 -97.5756 100° East 269 310 6,500 -1,440 Descending Kansas City Center
01:12PM 37.7719 -97.4842 97° East 238 274 5,000 -1,260 Descending Kansas City Center
01:13PM 37.7653 -97.4139 97° East 231 266 4,100 -1,020 Descending Kansas City Center
01:13PM 37.7439 -97.3903 139° Southeast 226 260 3,500 -1,140 Descending Kansas City Center
01:14PM 37.7069 -97.4142 207° Southwest 182 209 2,300 -960 Descending Kansas City Center
01:15PM 37.6758 -97.4269 198° South 144 166 1,600 -420 Descending Kansas City Center
01:16PM 37.6458 -97.4417 201° Southwest 139 160 1,500 -120 Descending Kansas City Center
01:18PM 37.6499 -97.4331 90° East  Level Estimated